createdAt,value
2023-10-16T00:03:57.853Z,84.10
2023-10-16T00:08:01.136Z,85.04
2023-10-16T00:12:03.645Z,85.12
2023-10-16T00:16:06.510Z,85.39
2023-10-16T00:20:08.935Z,85.42
2023-10-16T00:24:12.861Z,84.72
2023-10-16T00:28:14.358Z,85.49
2023-10-16T00:32:16.137Z,84.99
2023-10-16T00:36:17.824Z,85.29
2023-10-16T00:40:21.086Z,84.36
2023-10-16T00:44:23.330Z,86.36
2023-10-16T00:48:25.631Z,86.20
2023-10-16T00:52:27.394Z,85.21
2023-10-16T00:56:33.527Z,85.96
2023-10-16T01:00:36.573Z,85.76
2023-10-16T01:04:38.639Z,85.73
2023-10-16T01:08:44.916Z,86.02
2023-10-16T01:12:47.754Z,85.89
2023-10-16T01:16:49.937Z,84.95
2023-10-16T01:20:51.455Z,86.92
2023-10-16T01:24:55.590Z,86.18
2023-10-16T01:29:00.120Z,85.92
2023-10-16T01:33:01.594Z,85.67
2023-10-16T01:37:03.113Z,85.30
2023-10-16T01:41:06.092Z,85.55
2023-10-16T01:45:09.101Z,85.84
2023-10-16T01:49:10.829Z,85.19
2023-10-16T01:53:12.555Z,86.30
2023-10-16T01:57:16.865Z,85.89
2023-10-16T02:01:19.866Z,85.50
2023-10-16T02:05:21.474Z,85.36
2023-10-16T02:09:23.182Z,84.91
2023-10-16T02:13:26.304Z,84.85
2023-10-16T02:17:27.857Z,85.49
2023-10-16T02:21:29.676Z,84.96
2023-10-16T02:25:33.608Z,85.89
2023-10-16T02:29:39.218Z,85.07
2023-10-16T02:33:41.030Z,85.00
2023-10-16T02:37:42.790Z,84.69
2023-10-16T02:41:44.515Z,84.82
2023-10-16T02:45:48.194Z,84.42
2023-10-16T02:49:50.006Z,85.56
2023-10-16T02:53:51.718Z,85.44
2023-10-16T02:57:53.742Z,85.69
2023-10-16T03:01:56.961Z,85.77
2023-10-16T03:06:00.252Z,85.90
2023-10-16T03:10:02.959Z,85.96
2023-10-16T03:14:04.757Z,85.94
2023-10-16T03:18:07.927Z,85.47
2023-10-16T03:22:09.496Z,85.87
2023-10-16T03:26:11.034Z,85.73
2023-10-16T03:30:14.555Z,85.83
2023-10-16T03:34:17.423Z,85.77
2023-10-16T03:38:18.882Z,85.47
2023-10-16T03:42:20.469Z,86.08
2023-10-16T03:46:23.226Z,86.05
2023-10-16T03:50:26.927Z,86.77
2023-10-16T03:54:30.020Z,85.49
2023-10-16T03:58:32.225Z,85.65
2023-10-16T04:02:33.733Z,85.04
2023-10-16T04:06:36.664Z,85.99
2023-10-16T04:10:38.183Z,86.64
2023-10-16T04:14:42.831Z,85.88
2023-10-16T04:18:44.614Z,85.53
2023-10-16T04:22:50.375Z,85.40
2023-10-16T04:26:52.670Z,85.29
2023-10-16T04:30:54.440Z,86.21
2023-10-16T04:34:56.199Z,86.38
2023-10-16T04:38:59.272Z,85.64
2023-10-16T04:43:00.770Z,86.07
2023-10-16T04:47:02.588Z,86.30
2023-10-16T04:51:29.302Z,85.88
2023-10-16T04:55:32.911Z,86.27
2023-10-16T04:59:36.248Z,86.00
2023-10-16T05:03:39.987Z,86.13
2023-10-16T05:07:42.054Z,86.24
2023-10-16T05:11:45.127Z,86.71
2023-10-16T05:15:46.707Z,86.76
2023-10-16T05:19:49.663Z,86.92
2023-10-16T05:23:51.714Z,86.82
2023-10-16T05:27:54.588Z,86.25
2023-10-16T05:32:00.634Z,86.55
2023-10-16T05:36:02.132Z,85.58
2023-10-16T05:40:04.698Z,85.63
2023-10-16T05:44:08.726Z,85.56
2023-10-16T05:48:10.573Z,86.42
2023-10-16T05:52:12.703Z,86.23
2023-10-16T05:56:14.445Z,86.78
2023-10-16T06:00:18.301Z,87.09
2023-10-16T06:04:20.426Z,86.34
2023-10-16T06:08:22.558Z,86.72
2023-10-16T06:12:25.257Z,85.72
2023-10-16T06:16:28.398Z,86.08
2023-10-16T06:20:30.328Z,86.45
2023-10-16T06:24:31.878Z,86.09
2023-10-16T06:28:34.913Z,85.80
2023-10-16T06:32:39.079Z,85.18
2023-10-16T06:36:42.152Z,85.11
2023-10-16T06:40:43.658Z,85.60
2023-10-16T06:44:46.259Z,84.51
2023-10-16T06:48:49.804Z,84.77
2023-10-16T06:52:53.367Z,85.18
2023-10-16T06:56:55.244Z,84.77
2023-10-16T07:00:57.731Z,84.53
2023-10-16T07:05:01.141Z,85.65
2023-10-16T07:09:03.084Z,85.15
2023-10-16T07:13:07.880Z,84.87
2023-10-16T07:17:09.730Z,85.06
2023-10-16T07:21:12.955Z,84.08
2023-10-16T07:25:14.842Z,82.53
2023-10-16T07:29:18.195Z,82.55
2023-10-16T07:33:20.129Z,81.51
2023-10-16T07:37:23.196Z,82.14
2023-10-16T07:41:25.294Z,83.14
2023-10-16T07:45:27.060Z,83.24
2023-10-16T07:49:28.603Z,83.81
2023-10-16T07:53:31.676Z,84.09
2023-10-16T07:57:35.117Z,83.50
2023-10-16T08:01:38.844Z,82.31
2023-10-16T08:05:43.629Z,83.21
2023-10-16T08:09:48.102Z,84.07
2023-10-16T08:13:51.127Z,82.66
2023-10-16T08:17:52.676Z,83.87
2023-10-16T08:21:54.434Z,85.14
2023-10-16T08:25:57.452Z,85.55
2023-10-16T08:29:58.918Z,84.43
2023-10-16T08:34:01.176Z,84.00
2023-10-16T08:38:04.114Z,83.83
2023-10-16T08:42:07.102Z,82.38
2023-10-16T08:46:10.831Z,82.20
2023-10-16T08:50:15.555Z,82.80
2023-10-16T08:54:17.630Z,82.95
2023-10-16T08:58:21.377Z,82.24
2023-10-16T09:02:26.190Z,81.88
2023-10-16T09:06:28.387Z,80.10
2023-10-16T09:10:33.796Z,80.82
2023-10-16T09:14:37.750Z,80.22
2023-10-16T09:18:39.557Z,79.95
2023-10-16T09:22:44.147Z,80.08
2023-10-16T09:26:45.878Z,79.04
2023-10-16T09:31:00.856Z,78.76
2023-10-16T09:35:09.136Z,78.67
2023-10-16T09:39:12.990Z,77.98
2023-10-16T09:43:14.502Z,76.93
2023-10-16T09:47:17.833Z,74.54
2023-10-16T09:51:20.735Z,70.35
2023-10-16T09:55:23.856Z,64.58
2023-10-16T09:59:27.280Z,58.77
2023-10-16T10:03:30.341Z,54.20
2023-10-16T10:07:33.363Z,48.43
2023-10-16T10:11:39.352Z,47.39
2023-10-16T10:15:45.936Z,50.91
2023-10-16T10:19:50.825Z,49.27
2023-10-16T10:23:54.802Z,45.68
2023-10-16T10:28:01.837Z,43.67
2023-10-16T10:32:11.241Z,45.39
2023-10-16T10:36:34.842Z,45.09
2023-10-16T10:40:36.999Z,45.45
2023-10-16T10:44:42.836Z,44.57
2023-10-16T10:48:44.448Z,45.05
2023-10-16T10:52:48.409Z,43.70
2023-10-16T10:56:50.250Z,42.67
2023-10-16T11:00:54.593Z,42.93
2023-10-16T11:04:59.007Z,43.55
2023-10-16T11:09:02.507Z,44.29
2023-10-16T11:13:05.083Z,40.70
2023-10-16T11:17:08.190Z,38.29
2023-10-16T11:21:10.344Z,41.21
2023-10-16T11:25:15.514Z,41.14
2023-10-16T11:29:19.197Z,41.27
2023-10-16T11:33:31.990Z,39.77
2023-10-16T11:37:34.316Z,39.99
2023-10-16T11:41:44.839Z,37.96
2023-10-16T11:45:47.605Z,36.01
2023-10-16T11:50:01.031Z,40.99
2023-10-16T11:54:03.804Z,42.22
2023-10-16T11:58:08.452Z,38.55
2023-10-16T12:02:10.448Z,36.21
2023-10-16T12:06:11.966Z,34.15
2023-10-16T12:10:14.222Z,32.52
2023-10-16T12:14:17.735Z,38.64
2023-10-16T12:18:19.247Z,41.09
2023-10-16T12:22:21.063Z,44.93
2023-10-16T12:26:23.296Z,47.91
2023-10-16T12:30:26.175Z,48.06
2023-10-16T12:34:28.055Z,51.92
2023-10-16T12:38:29.705Z,53.35
2023-10-16T12:42:32.468Z,54.74
2023-10-16T12:46:36.029Z,55.58
2023-10-16T12:50:37.586Z,56.21
2023-10-16T12:54:39.186Z,57.23
2023-10-16T12:58:41.140Z,57.03
2023-10-16T13:02:44.432Z,56.78
2023-10-16T13:06:47.044Z,56.56
2023-10-16T13:10:49.515Z,57.55
2023-10-16T13:14:52.243Z,58.18
2023-10-16T13:18:56.223Z,57.69
2023-10-16T13:22:58.595Z,57.04
2023-10-16T13:27:00.957Z,56.25
2023-10-16T13:31:02.937Z,58.54
2023-10-16T13:35:09.759Z,58.34
2023-10-16T13:39:11.461Z,57.17
2023-10-16T13:43:13.391Z,57.32
2023-10-16T13:47:14.928Z,58.57
2023-10-16T13:51:18.258Z,58.04
2023-10-16T13:55:21.208Z,56.58
2023-10-16T13:59:22.780Z,55.95
2023-10-16T14:03:24.517Z,56.09
2023-10-16T14:07:27.678Z,56.88
2023-10-16T14:11:29.417Z,55.92
2023-10-16T14:15:31.316Z,54.06
2023-10-16T14:19:33.336Z,54.53
2023-10-16T14:23:36.688Z,56.00
2023-10-16T14:27:38.733Z,57.27
2023-10-16T14:31:40.364Z,56.36
2023-10-16T14:35:42.112Z,56.34
2023-10-16T14:39:45.200Z,56.58
2023-10-16T14:43:47.062Z,57.13
2023-10-16T14:47:50.663Z,57.20
2023-10-16T14:51:53.966Z,57.30
2023-10-16T14:55:57.275Z,57.12
2023-10-16T15:00:00.556Z,56.83
2023-10-16T15:04:02.130Z,58.08
2023-10-16T15:08:04.226Z,57.81
2023-10-16T15:12:09.357Z,57.20
2023-10-16T15:16:11.730Z,57.95
2023-10-16T15:20:13.618Z,58.01
2023-10-16T15:24:15.082Z,59.27
2023-10-16T15:28:32.067Z,60.15
2023-10-16T15:32:40.246Z,59.10
2023-10-16T15:36:41.847Z,59.88
2023-10-16T15:40:44.929Z,62.80
2023-10-16T15:44:48.931Z,63.48
2023-10-16T15:48:51.026Z,63.17
2023-10-16T15:52:55.154Z,64.47
2023-10-16T15:56:57.803Z,64.72
2023-10-16T16:01:00.918Z,66.35
2023-10-16T16:05:02.703Z,67.81
2023-10-16T16:09:05.111Z,67.39
2023-10-16T16:13:07.235Z,67.84
2023-10-16T16:17:10.680Z,68.31
2023-10-16T16:21:12.336Z,69.05
2023-10-16T16:25:14.432Z,69.73
2023-10-16T16:29:16.283Z,69.89
2023-10-16T16:33:19.363Z,69.84
2023-10-16T16:37:20.905Z,70.82
2023-10-16T16:41:23.448Z,70.03
2023-10-16T16:45:25.429Z,69.48
2023-10-16T16:49:28.541Z,72.11
2023-10-16T16:53:30.605Z,72.89
2023-10-16T16:57:33.192Z,72.77
2023-10-16T17:01:34.994Z,72.93
2023-10-16T17:05:37.989Z,73.63
2023-10-16T17:09:39.697Z,73.77
2023-10-16T17:13:41.541Z,74.15
2023-10-16T17:17:43.742Z,74.47
2023-10-16T17:21:46.653Z,74.67
2023-10-16T17:25:48.143Z,75.49
2023-10-16T17:29:49.864Z,74.91
2023-10-16T17:33:55.074Z,76.12
2023-10-16T17:37:58.294Z,76.42
2023-10-16T17:41:59.868Z,76.26
2023-10-16T17:46:01.491Z,76.37
2023-10-16T17:50:03.542Z,76.17
2023-10-16T17:54:07.309Z,76.29
2023-10-16T17:58:09.147Z,76.72
2023-10-16T18:02:12.722Z,76.49
2023-10-16T18:06:14.454Z,76.41
2023-10-16T18:10:18.955Z,77.58
2023-10-16T18:14:24.416Z,77.67
2023-10-16T18:18:26.053Z,77.24
2023-10-16T18:22:27.943Z,76.83
2023-10-16T18:26:30.874Z,77.70
2023-10-16T18:30:32.838Z,78.12
2023-10-16T18:34:34.545Z,78.05
2023-10-16T18:38:36.543Z,77.47
2023-10-16T18:42:41.397Z,77.85
2023-10-16T18:46:44.137Z,77.37
2023-10-16T18:50:46.486Z,78.46
2023-10-16T18:54:47.951Z,78.60
2023-10-16T18:58:51.057Z,78.66
2023-10-16T19:02:52.766Z,79.30
2023-10-16T19:06:54.647Z,78.81
2023-10-16T19:10:59.103Z,79.03
2023-10-16T19:15:02.951Z,79.07
2023-10-16T19:19:04.754Z,78.89
2023-10-16T19:23:06.505Z,79.40
2023-10-16T19:27:08.087Z,79.66
2023-10-16T19:31:12.320Z,79.88
2023-10-16T19:35:14.933Z,79.72
2023-10-16T19:39:20.889Z,79.53
2023-10-16T19:43:22.696Z,79.64
2023-10-16T19:47:25.792Z,79.81
2023-10-16T19:51:27.570Z,79.82
2023-10-16T19:55:29.314Z,79.12
2023-10-16T19:59:31.078Z,79.14
2023-10-16T20:03:34.950Z,79.16
2023-10-16T20:07:36.835Z,79.39
2023-10-16T20:11:38.428Z,79.61
2023-10-16T20:15:41.212Z,80.07
2023-10-16T20:19:44.367Z,80.42
2023-10-16T20:23:47.140Z,80.81
2023-10-16T20:27:49.353Z,80.71
2023-10-16T20:32:00.089Z,80.86
2023-10-16T20:36:04.373Z,79.92
2023-10-16T20:40:07.051Z,80.52
2023-10-16T20:44:09.993Z,80.69
2023-10-16T20:48:13.353Z,80.40
2023-10-16T20:52:19.141Z,80.58
2023-10-16T20:56:21.094Z,81.60
2023-10-16T21:00:23.676Z,81.27
2023-10-16T21:04:26.005Z,81.76
2023-10-16T21:08:29.060Z,81.79
2023-10-16T21:12:31.032Z,82.37
2023-10-16T21:16:32.746Z,81.96
2023-10-16T21:20:34.619Z,82.87
2023-10-16T21:24:37.699Z,82.73
2023-10-16T21:28:39.167Z,82.46
2023-10-16T21:32:40.921Z,82.48
2023-10-16T21:36:42.494Z,82.02
2023-10-16T21:40:45.560Z,82.55
2023-10-16T21:44:47.276Z,81.96
2023-10-16T21:48:49.340Z,83.11
2023-10-16T21:52:50.825Z,84.09
2023-10-16T21:56:53.977Z,84.07
2023-10-16T22:00:56.730Z,84.53
2023-10-16T22:04:58.229Z,85.04
2023-10-16T22:08:59.708Z,85.40
2023-10-16T22:13:02.970Z,85.61
2023-10-16T22:17:04.462Z,85.83
2023-10-16T22:21:16.323Z,85.41
2023-10-16T22:25:20.255Z,85.46
2023-10-16T22:29:23.088Z,85.78
2023-10-16T22:33:24.627Z,86.19
2023-10-16T22:37:26.568Z,86.47
2023-10-16T22:41:29.942Z,85.88
2023-10-16T22:45:32.988Z,85.47
2023-10-16T22:49:34.695Z,85.89
2023-10-16T22:53:36.501Z,85.77
2023-10-16T22:57:37.938Z,85.09
2023-10-16T23:01:41.000Z,83.86
2023-10-16T23:05:42.777Z,84.67
2023-10-16T23:09:46.674Z,84.48
2023-10-16T23:13:48.489Z,83.41
2023-10-16T23:17:52.043Z,83.64
2023-10-16T23:21:53.922Z,84.28
2023-10-16T23:25:58.976Z,84.09
2023-10-16T23:30:00.749Z,85.13
2023-10-16T23:34:04.002Z,84.46
2023-10-16T23:38:06.826Z,84.94
2023-10-16T23:42:08.590Z,86.27
2023-10-16T23:46:10.380Z,85.92
2023-10-16T23:50:15.740Z,86.70
2023-10-16T23:54:18.086Z,86.20
2023-10-16T23:58:19.826Z,85.81
